This is the latest recevied weather packets stored in our database for station/object IT9DBI-3. If no packets are shown the sender has not sent any weather packets the latest 10 day(s).
| Time | Temp. | Humidity | Pressure | Rain* | Wind** | Luminosity | Snow |
|---|---|---|---|---|---|---|---|
| 1788289161 | 30.56° C | 54% | 1016.6 hPa | - | - | - | - |
| 1788287960 | 30.56° C | 54% | 1016.5 hPa | - | - | - | - |
| 1788286758 | 31.67° C | 50% | 1016.2 hPa | - | - | - | - |
| 1788285557 | 33.33° C | 45% | 1015.9 hPa | - | - | - | - |
| 1788284356 | 32.78° C | 46% | 1015.7 hPa | - | - | - | - |
| 1788283155 | 33.89° C | 45% | 1015.7 hPa | - | - | - | - |
| 1788281953 | 35° C | 42% | 1015.6 hPa | - | - | - | - |
| 1788280752 | 36.11° C | 38% | 1015.4 hPa | - | - | - | - |
| 1788279550 | 35.56° C | 39% | 1015.6 hPa | - | - | - | - |
| 1788278350 | 37.22° C | 35% | 1015.4 hPa | - | - | - | - |
| 1788277148 | 37.22° C | 35% | 1015.4 hPa | - | - | - | - |
| 1788275947 | 37.78° C | 33% | 1015.4 hPa | - | - | - | - |
| 1788274745 | 37.22° C | 34% | 1015.4 hPa | - | - | - | - |
| 1788273544 | 37.78° C | 34% | 1015.4 hPa | - | - | - | - |
| 1788272343 | 38.33° C | 32% | 1015.4 hPa | - | - | - | - |
| 1788271142 | 38.33° C | 32% | 1015.4 hPa | - | - | - | - |
| 1788269940 | 37.78° C | 32% | 1015.3 hPa | - | - | - | - |
| 1788268739 | 37.22° C | 34% | 1015.4 hPa | - | - | - | - |
| 1788267538 | 36.11° C | 33% | 1015.5 hPa | - | - | - | - |
| 1788266336 | 36.67° C | 32% | 1015.7 hPa | - | - | - | - |
| 1788265135 | 37.22° C | 32% | 1015.7 hPa | - | - | - | - |
| 1788263934 | 36.11° C | 35% | 1015.8 hPa | - | - | - | - |
| 1788262732 | 35° C | 36% | 1015.8 hPa | - | - | - | - |
| 1788261531 | 35° C | 36% | 1015.8 hPa | - | - | - | - |
| 1788260330 | 34.44° C | 37% | 1016 hPa | - | - | - | - |
* Rain since midnight (hover to see other rain measurements)
** Current wind speed in m/s (hover to see current wind gust speed)